createdAt,value
2022-08-26T00:02:34.161Z,6.38
2022-08-26T00:05:35.973Z,5.07
2022-08-26T00:08:38.833Z,4.88
2022-08-26T00:11:44.452Z,5.13
2022-08-26T00:14:46.437Z,5.65
2022-08-26T00:17:50.058Z,5.28
2022-08-26T00:20:51.825Z,5.53
2022-08-26T00:23:53.652Z,6.03
2022-08-26T00:26:55.384Z,6.68
2022-08-26T00:29:57.275Z,5.93
2022-08-26T00:33:00.311Z,5.47
2022-08-26T00:36:02.285Z,5.55
2022-08-26T00:39:06.900Z,5.35
2022-08-26T00:42:08.603Z,5.70
2022-08-26T00:45:11.809Z,5.95
2022-08-26T00:48:17.932Z,5.47
2022-08-26T00:51:23.165Z,5.35
2022-08-26T00:54:32.428Z,5.78
2022-08-26T00:57:35.661Z,5.50
2022-08-26T01:00:37.483Z,6.25
2022-08-26T01:03:41.645Z,5.32
2022-08-26T01:06:44.304Z,5.50
2022-08-26T01:09:46.868Z,5.55
2022-08-26T01:12:57.296Z,5.18
2022-08-26T01:16:02.509Z,5.80
2022-08-26T01:19:25.211Z,5.68
2022-08-26T01:22:45.408Z,6.20
2022-08-26T01:25:51.973Z,6.88
2022-08-26T01:28:56.609Z,7.20
2022-08-26T01:31:59.045Z,7.15
2022-08-26T01:35:01.527Z,6.95
2022-08-26T01:38:04.653Z,7.82
2022-08-26T01:41:19.614Z,8.07
2022-08-26T01:44:25.988Z,8.15
2022-08-26T01:47:31.386Z,8.50
2022-08-26T01:50:35.867Z,8.75
2022-08-26T01:53:39.401Z,8.70
2022-08-26T01:56:43.676Z,8.98
2022-08-26T01:59:46.952Z,8.43
2022-08-26T02:03:12.072Z,9.02
2022-08-26T02:06:14.933Z,11.27
2022-08-26T02:09:18.764Z,12.88
2022-08-26T02:12:22.784Z,11.23
2022-08-26T02:15:24.707Z,14.65
2022-08-26T02:18:29.673Z,13.80
2022-08-26T02:21:32.504Z,15.65
2022-08-26T02:24:54.729Z,15.68
2022-08-26T02:27:56.849Z,20.02
2022-08-26T02:30:58.600Z,20.83
2022-08-26T02:34:15.242Z,21.75
2022-08-26T02:37:17.630Z,23.40
2022-08-26T02:40:25.468Z,23.38
2022-08-26T02:43:31.403Z,25.35
2022-08-26T02:46:35.077Z,27.65
2022-08-26T02:49:42.008Z,27.52
2022-08-26T02:52:46.228Z,28.98
2022-08-26T02:55:49.413Z,30.25
2022-08-26T02:58:51.742Z,28.85
2022-08-26T03:01:56.088Z,30.23
2022-08-26T03:05:01.964Z,30.38
2022-08-26T03:08:04.628Z,31.52
2022-08-26T03:11:06.317Z,35.00
2022-08-26T03:14:08.414Z,34.13
2022-08-26T03:17:10.137Z,33.95
2022-08-26T03:20:13.682Z,33.58
2022-08-26T03:23:17.417Z,35.25
2022-08-26T03:26:20.677Z,36.28
2022-08-26T03:29:42.095Z,35.70
2022-08-26T03:32:44.467Z,34.30
2022-08-26T03:35:47.966Z,36.63
2022-08-26T03:38:52.545Z,37.83
2022-08-26T03:41:55.356Z,37.00
2022-08-26T03:44:57.121Z,39.15
2022-08-26T03:47:59.386Z,37.95
2022-08-26T03:51:03.163Z,38.72
2022-08-26T03:54:06.030Z,40.53
2022-08-26T03:57:10.025Z,37.47
2022-08-26T04:00:18.427Z,39.25
2022-08-26T04:03:40.409Z,39.30
2022-08-26T04:06:43.418Z,40.55
2022-08-26T04:09:46.552Z,41.63
2022-08-26T04:12:48.486Z,39.92
2022-08-26T04:15:50.547Z,41.70
2022-08-26T04:18:52.830Z,42.10
2022-08-26T04:21:54.614Z,42.70
2022-08-26T04:24:56.581Z,41.45
2022-08-26T04:27:58.338Z,43.22
2022-08-26T04:31:00.170Z,41.03
2022-08-26T04:34:02.830Z,40.63
2022-08-26T04:37:05.616Z,42.90
2022-08-26T04:40:09.896Z,43.55
2022-08-26T04:43:11.933Z,41.58
2022-08-26T04:46:18.435Z,41.83
2022-08-26T04:49:21.133Z,41.25
2022-08-26T04:52:23.283Z,39.80
2022-08-26T04:55:38.486Z,39.33
2022-08-26T04:58:41.855Z,40.03
2022-08-26T05:01:45.913Z,38.70
2022-08-26T05:04:48.314Z,38.75
2022-08-26T05:07:53.632Z,38.17
2022-08-26T05:10:55.990Z,38.67
2022-08-26T05:14:01.623Z,37.85
2022-08-26T05:17:04.219Z,35.97
2022-08-26T05:20:06.837Z,36.95
2022-08-26T05:23:08.995Z,36.28
2022-08-26T05:26:10.849Z,35.55
2022-08-26T05:29:13.872Z,37.47
2022-08-26T05:32:15.573Z,37.35
2022-08-26T05:35:17.927Z,35.58
2022-08-26T05:38:21.615Z,36.58
2022-08-26T05:41:34.171Z,36.13
2022-08-26T05:44:55.503Z,37.05
2022-08-26T05:47:57.892Z,33.50
2022-08-26T05:51:06.418Z,34.88
2022-08-26T05:54:08.717Z,34.70
2022-08-26T05:57:13.752Z,31.38
2022-08-26T06:00:16.071Z,33.22
2022-08-26T06:03:17.822Z,32.53
2022-08-26T06:06:27.790Z,30.90
2022-08-26T06:09:30.773Z,30.58
2022-08-26T06:12:33.688Z,30.08
2022-08-26T06:15:38.654Z,29.48
2022-08-26T06:18:45.717Z,29.48
2022-08-26T06:21:51.339Z,30.15
2022-08-26T06:25:14.819Z,30.10
2022-08-26T06:28:17.230Z,29.15
2022-08-26T06:31:19.851Z,28.50
2022-08-26T06:34:23.234Z,26.95
2022-08-26T06:37:31.328Z,29.45
2022-08-26T06:40:50.457Z,26.73
2022-08-26T06:43:52.359Z,27.25
2022-08-26T06:46:54.283Z,25.83
2022-08-26T06:49:56.470Z,26.13
2022-08-26T06:52:58.388Z,26.15
2022-08-26T06:56:07.291Z,26.17
2022-08-26T06:59:12.553Z,25.02
2022-08-26T07:02:15.074Z,25.55
2022-08-26T07:05:19.583Z,27.02
2022-08-26T07:08:22.371Z,24.63
2022-08-26T07:11:24.068Z,24.75
2022-08-26T07:14:26.541Z,24.27
2022-08-26T07:17:28.471Z,25.30
2022-08-26T07:20:30.247Z,24.02
2022-08-26T07:23:32.820Z,23.30
2022-08-26T07:26:35.170Z,23.00
2022-08-26T07:29:39.491Z,22.63
2022-08-26T07:32:41.851Z,21.42
2022-08-26T07:35:44.755Z,21.42
2022-08-26T07:38:48.085Z,20.13
2022-08-26T07:41:50.908Z,20.00
2022-08-26T07:44:52.634Z,19.02
2022-08-26T07:47:54.707Z,21.27
2022-08-26T07:50:56.431Z,19.48
2022-08-26T07:53:58.619Z,18.75
2022-08-26T07:57:00.415Z,19.10
2022-08-26T08:00:12.759Z,19.52
2022-08-26T08:03:15.179Z,19.25
2022-08-26T08:06:17.928Z,18.52
2022-08-26T08:09:19.777Z,18.77
2022-08-26T08:12:24.128Z,17.63
2022-08-26T08:15:29.795Z,18.25
2022-08-26T08:18:31.812Z,18.73
2022-08-26T08:21:33.547Z,17.38
2022-08-26T08:24:35.489Z,17.45
2022-08-26T08:27:38.803Z,16.60
2022-08-26T08:30:41.693Z,17.58
2022-08-26T08:33:43.421Z,17.80
2022-08-26T08:36:46.206Z,18.27
2022-08-26T08:39:48.979Z,17.67
2022-08-26T08:43:06.092Z,17.05
2022-08-26T08:46:12.730Z,15.82
2022-08-26T08:49:15.248Z,18.30
2022-08-26T08:52:29.415Z,18.15
2022-08-26T08:55:55.918Z,16.75
2022-08-26T08:59:19.557Z,16.83
2022-08-26T09:02:51.073Z,16.50
2022-08-26T09:05:54.565Z,17.15
2022-08-26T09:08:57.527Z,15.45
2022-08-26T09:12:01.626Z,16.27
2022-08-26T09:15:11.216Z,14.38
2022-08-26T09:18:34.458Z,14.63
2022-08-26T09:21:36.245Z,15.07
2022-08-26T09:24:48.471Z,14.82
2022-08-26T09:27:53.449Z,14.93
2022-08-26T09:31:14.071Z,15.32
2022-08-26T09:34:27.628Z,14.25
2022-08-26T09:41:05.124Z,13.65
2022-08-26T09:44:09.789Z,14.52
2022-08-26T09:47:32.061Z,14.23
2022-08-26T09:50:54.756Z,13.05
2022-08-26T09:54:01.790Z,15.27
2022-08-26T09:57:26.976Z,15.13
2022-08-26T10:00:40.325Z,14.00
2022-08-26T10:03:42.934Z,13.45
2022-08-26T10:06:57.535Z,13.98
2022-08-26T10:09:59.895Z,14.43
2022-08-26T10:13:09.444Z,15.77
2022-08-26T10:16:22.131Z,14.60
2022-08-26T10:19:41.743Z,14.50
2022-08-26T10:23:14.095Z,13.32
2022-08-26T10:26:24.283Z,14.90
2022-08-26T10:29:34.144Z,14.30
2022-08-26T10:32:41.687Z,14.43
2022-08-26T10:35:57.469Z,13.10
2022-08-26T10:39:04.429Z,14.10
2022-08-26T10:42:21.949Z,13.45
2022-08-26T10:45:27.581Z,12.55
2022-08-26T10:48:41.925Z,12.38
2022-08-26T10:52:12.358Z,11.70
2022-08-26T10:55:49.119Z,11.75
2022-08-26T10:59:20.510Z,10.68
2022-08-26T11:02:31.369Z,10.68
2022-08-26T11:05:33.296Z,11.05
2022-08-26T11:08:34.994Z,10.75
2022-08-26T11:11:39.739Z,10.43
2022-08-26T11:14:53.629Z,10.02
2022-08-26T11:18:01.917Z,8.98
2022-08-26T11:21:16.359Z,10.00
2022-08-26T11:24:52.317Z,10.57
2022-08-26T11:27:58.230Z,9.85
2022-08-26T11:30:59.948Z,8.68
2022-08-26T11:34:03.493Z,7.82
2022-08-26T11:37:15.554Z,7.85
2022-08-26T11:40:26.702Z,7.25
2022-08-26T11:43:29.872Z,7.03
2022-08-26T11:46:35.682Z,6.63
2022-08-26T11:49:37.908Z,6.68
2022-08-26T11:52:39.712Z,5.70
2022-08-26T11:55:44.816Z,6.28
2022-08-26T11:58:49.878Z,5.70
2022-08-26T12:01:53.930Z,5.45
2022-08-26T12:04:56.729Z,5.43
2022-08-26T12:08:11.932Z,5.72
2022-08-26T12:11:23.442Z,4.80
2022-08-26T12:14:27.663Z,5.07
2022-08-26T12:17:29.923Z,4.65
2022-08-26T12:20:46.212Z,4.10
2022-08-26T12:23:50.830Z,4.13
2022-08-26T12:27:18.357Z,3.17
2022-08-26T12:30:24.530Z,4.07
2022-08-26T12:33:28.742Z,3.60
2022-08-26T12:36:38.891Z,3.42
2022-08-26T12:39:44.454Z,4.18
2022-08-26T12:42:46.697Z,3.00
2022-08-26T12:45:57.662Z,2.67
2022-08-26T12:49:01.675Z,3.88
2022-08-26T12:52:04.923Z,3.40
2022-08-26T12:55:19.119Z,3.30
2022-08-26T12:58:28.942Z,3.95
2022-08-26T13:01:38.930Z,3.22
2022-08-26T13:04:42.715Z,3.70
2022-08-26T13:07:44.483Z,3.47
2022-08-26T13:10:47.666Z,3.85
2022-08-26T13:13:52.547Z,3.30
2022-08-26T13:16:55.260Z,4.03
2022-08-26T13:20:03.316Z,3.95
2022-08-26T13:23:05.687Z,3.83
2022-08-26T13:26:07.508Z,3.53
2022-08-26T13:29:10.771Z,4.85
2022-08-26T13:32:12.968Z,4.57
2022-08-26T13:35:14.773Z,4.55
2022-08-26T13:38:20.575Z,3.80
2022-08-26T13:41:36.180Z,3.85
2022-08-26T13:44:38.951Z,3.47
2022-08-26T13:47:40.649Z,2.95
2022-08-26T13:50:42.355Z,3.17
2022-08-26T13:53:44.373Z,3.88
2022-08-26T13:56:46.100Z,3.20
2022-08-26T13:59:47.803Z,3.28
2022-08-26T14:02:49.776Z,3.25
2022-08-26T14:05:53.276Z,2.90
2022-08-26T14:08:55.034Z,2.65
2022-08-26T14:11:58.128Z,2.92
2022-08-26T14:15:00.693Z,3.08
2022-08-26T14:18:05.025Z,2.30
2022-08-26T14:21:10.920Z,2.15
2022-08-26T14:24:12.657Z,2.00
2022-08-26T14:27:14.795Z,1.88
2022-08-26T14:30:17.301Z,1.92
2022-08-26T14:33:23.312Z,1.70
2022-08-26T14:36:33.896Z,1.88
2022-08-26T14:39:35.777Z,2.60
2022-08-26T14:42:37.496Z,2.00
2022-08-26T14:48:49.310Z,1.98
2022-08-26T14:51:51.036Z,1.70
2022-08-26T14:54:54.833Z,2.45
2022-08-26T14:57:57.111Z,1.95
2022-08-26T15:00:59.725Z,2.13
2022-08-26T15:04:06.128Z,1.92
2022-08-26T15:07:12.733Z,2.17
2022-08-26T15:10:16.740Z,2.08
2022-08-26T15:13:18.425Z,1.67
2022-08-26T15:16:20.692Z,1.45
2022-08-26T15:19:24.354Z,1.73
2022-08-26T15:22:26.572Z,1.83
2022-08-26T15:25:31.663Z,1.63
2022-08-26T15:28:33.363Z,2.22
2022-08-26T15:31:35.487Z,2.00
2022-08-26T15:34:37.653Z,2.13
2022-08-26T15:37:39.455Z,2.08
2022-08-26T15:40:41.376Z,1.85
2022-08-26T15:43:43.206Z,1.75
2022-08-26T15:46:46.929Z,1.80
2022-08-26T15:49:48.799Z,1.70
2022-08-26T15:52:50.833Z,1.58
2022-08-26T15:55:56.442Z,2.28
2022-08-26T15:58:59.056Z,1.98
2022-08-26T16:02:01.786Z,1.92
2022-08-26T16:05:03.831Z,1.35
2022-08-26T16:08:07.534Z,2.10
2022-08-26T16:11:09.470Z,1.85
2022-08-26T16:14:11.295Z,1.95
2022-08-26T16:17:13.124Z,1.60
2022-08-26T16:20:16.805Z,2.15
2022-08-26T16:23:18.838Z,1.70
2022-08-26T16:26:26.722Z,1.42
2022-08-26T16:29:28.472Z,1.33
2022-08-26T16:32:31.330Z,1.60
2022-08-26T16:35:33.453Z,1.48
2022-08-26T16:38:37.483Z,1.40
2022-08-26T16:41:39.651Z,2.15
2022-08-26T16:44:44.460Z,1.52
2022-08-26T16:47:47.823Z,1.73
2022-08-26T16:50:50.521Z,1.63
2022-08-26T16:53:53.736Z,1.35
2022-08-26T16:56:55.507Z,1.73
2022-08-26T16:59:57.579Z,1.67
2022-08-26T17:03:01.002Z,1.73
2022-08-26T17:06:03.143Z,2.17
2022-08-26T17:09:04.988Z,1.52
2022-08-26T17:12:06.990Z,1.90
2022-08-26T17:15:09.511Z,1.50
2022-08-26T17:18:12.042Z,1.58
2022-08-26T17:21:14.154Z,1.40
2022-08-26T17:24:16.021Z,1.40
2022-08-26T17:27:17.794Z,1.83
2022-08-26T17:30:20.965Z,1.40
2022-08-26T17:33:25.252Z,1.42
2022-08-26T17:36:28.404Z,1.33
2022-08-26T17:39:30.241Z,1.63
2022-08-26T17:42:32.017Z,1.40
2022-08-26T17:45:38.408Z,1.10
2022-08-26T17:48:41.097Z,1.10
2022-08-26T17:51:42.853Z,1.52
2022-08-26T17:54:44.552Z,1.58
2022-08-26T17:57:53.191Z,1.92
2022-08-26T18:00:55.518Z,1.35
2022-08-26T18:04:00.358Z,1.20
2022-08-26T18:07:02.959Z,0.95
2022-08-26T18:10:07.395Z,1.20
2022-08-26T18:13:11.490Z,1.27
2022-08-26T18:16:13.394Z,1.20
2022-08-26T18:19:15.125Z,1.00
2022-08-26T18:22:16.839Z,0.90
2022-08-26T18:25:18.913Z,1.38
2022-08-26T18:28:20.843Z,1.20
2022-08-26T18:31:23.166Z,0.90
2022-08-26T18:34:24.970Z,0.88
2022-08-26T18:37:34.189Z,1.17
2022-08-26T18:40:38.431Z,0.93
2022-08-26T18:43:40.165Z,1.10
2022-08-26T18:46:42.617Z,0.80
2022-08-26T18:49:46.109Z,0.85
2022-08-26T18:52:47.848Z,1.10
2022-08-26T18:55:49.567Z,0.80
2022-08-26T18:58:51.561Z,1.05
2022-08-26T19:01:53.559Z,1.10
2022-08-26T19:04:55.437Z,1.08
2022-08-26T19:07:57.288Z,1.17
2022-08-26T19:10:59.873Z,0.82
2022-08-26T19:14:02.295Z,0.70
2022-08-26T19:17:04.635Z,1.10
2022-08-26T19:20:07.388Z,0.95
2022-08-26T19:23:21.561Z,1.23
2022-08-26T19:26:31.907Z,1.80
2022-08-26T19:29:35.635Z,2.05
2022-08-26T19:32:37.451Z,1.80
2022-08-26T19:35:39.204Z,1.42
2022-08-26T19:38:41.568Z,1.67
2022-08-26T19:41:44.007Z,2.00
2022-08-26T19:45:04.140Z,1.63
2022-08-26T19:48:06.080Z,1.58
2022-08-26T19:51:07.915Z,1.77
2022-08-26T19:54:09.660Z,1.85
2022-08-26T19:57:11.687Z,1.80
2022-08-26T20:00:16.301Z,1.65
2022-08-26T20:03:18.078Z,1.30
2022-08-26T20:06:20.393Z,1.63
2022-08-26T20:09:22.224Z,1.65
2022-08-26T20:12:24.754Z,1.30
2022-08-26T20:15:28.544Z,1.40
2022-08-26T20:18:49.783Z,1.60
2022-08-26T20:21:51.503Z,1.38
2022-08-26T20:24:53.933Z,1.45
2022-08-26T20:27:55.608Z,1.10
2022-08-26T20:30:57.399Z,1.85
2022-08-26T20:33:59.143Z,1.70
2022-08-26T20:37:01.959Z,1.25
2022-08-26T20:40:04.731Z,1.05
2022-08-26T20:43:06.781Z,1.40
2022-08-26T20:46:17.270Z,1.48
2022-08-26T20:49:20.945Z,1.30
2022-08-26T20:52:22.764Z,1.05
2022-08-26T20:55:26.298Z,1.30
2022-08-26T20:58:28.281Z,1.40
2022-08-26T21:01:34.638Z,2.05
2022-08-26T21:04:36.623Z,1.50
2022-08-26T21:07:39.299Z,1.38
2022-08-26T21:10:41.025Z,1.60
2022-08-26T21:14:03.985Z,1.40
2022-08-26T21:17:04.881Z,1.40
2022-08-26T21:20:07.343Z,1.85
2022-08-26T21:23:09.053Z,1.65
2022-08-26T21:26:13.589Z,1.70
2022-08-26T21:29:15.375Z,1.75
2022-08-26T21:32:17.273Z,1.80
2022-08-26T21:35:19.309Z,1.85
2022-08-26T21:38:21.780Z,1.42
2022-08-26T21:41:24.920Z,2.07
2022-08-26T21:44:26.684Z,1.87
2022-08-26T21:47:28.765Z,1.77
2022-08-26T21:50:30.535Z,2.40
2022-08-26T21:53:32.317Z,1.85
2022-08-26T21:56:39.547Z,1.60
2022-08-26T21:59:41.317Z,1.70
2022-08-26T22:02:43.101Z,1.73
2022-08-26T22:05:46.381Z,1.73
2022-08-26T22:08:48.729Z,2.40
2022-08-26T22:11:51.639Z,1.95
2022-08-26T22:14:53.840Z,2.10
2022-08-26T22:17:55.557Z,1.70
2022-08-26T22:21:05.715Z,1.73
2022-08-26T22:24:08.550Z,1.58
2022-08-26T22:27:11.937Z,2.03
2022-08-26T22:30:13.837Z,1.55
2022-08-26T22:33:16.703Z,1.50
2022-08-26T22:36:20.951Z,1.65
2022-08-26T22:39:25.120Z,1.52
2022-08-26T22:42:27.069Z,1.88
2022-08-26T22:45:31.254Z,1.73
2022-08-26T22:48:33.143Z,1.83
2022-08-26T22:51:34.996Z,1.73
2022-08-26T22:54:36.752Z,2.28
2022-08-26T22:57:38.981Z,1.65
2022-08-26T23:00:42.130Z,1.80
2022-08-26T23:03:45.111Z,1.80
2022-08-26T23:06:47.500Z,1.90
2022-08-26T23:09:49.734Z,1.95
2022-08-26T23:12:52.371Z,1.80
2022-08-26T23:16:02.267Z,1.93
2022-08-26T23:19:04.944Z,1.90
2022-08-26T23:22:06.859Z,1.98
2022-08-26T23:25:10.549Z,1.70
2022-08-26T23:28:13.047Z,1.57
2022-08-26T23:31:14.830Z,1.37
2022-08-26T23:34:35.412Z,1.43
2022-08-26T23:37:42.250Z,1.80
2022-08-26T23:40:44.003Z,1.70
2022-08-26T23:43:45.738Z,1.43
2022-08-26T23:46:47.510Z,1.53
2022-08-26T23:49:49.285Z,1.40
2022-08-26T23:53:05.997Z,1.10
2022-08-26T23:56:14.876Z,1.63
2022-08-26T23:59:16.616Z,1.23
